Aérodrome :
LOGIN :

S'inscrire | Disclaimer

   EN    FR    IT 

 










Légende :    VFR   VFR Marginal   IFR   IFR Intensif   IFR Très Intensif
Visi : 
Plafond : 
>= 8 km
>= 3000ft
5 à 8 km
1000 à 3000 ft
1500m à 5 km
500 à 1000 ft
800 à 1500m
200 à 500 ft
< 800m
< 200 ft
Symboles :   Orages  Brouillard  Fortes neiges  Fortes précipitations  Vent > 20 kt
SIGMETs :   Divers  Orages  Givrage  Turbulence  Onde Orograph.  Cendres Volcan.







- Altitude de l'aérodrome : 416 ft
- Code IATA : OVD


LEAS - Asturias

DERNIER METAR :
  • 162000Z 24005KT 9999 FEW020 13/04 Q1019 NOSIG

METARs EXPIRÉS :
  • 161930Z 24003KT 200V290 9999 FEW020 14/04 Q1019 NOSIG
  • 161900Z 21001KT 9999 FEW020 13/04 Q1019 NOSIG
  • 161830Z 22002KT 9999 FEW020 13/05 Q1019 NOSIG
  • 161800Z VRB02KT 9999 FEW020 14/06 Q1018 NOSIG
  • 161730Z 00000KT CAVOK 18/06 Q1018 NOSIG

TAF TAF LEAS
Valide du 16 à 15h jusqu'au 17 à 15h UTC


161400Z 1615/1715 18009KT CAVOK TX20/1714Z TN07/1703Z
PROB30
TEMPO 1615/1618 02010KT
Pas de NOTAMs connus pour ce terrain.



MET'MAP, la Météo Aéronautique d'un coup d'oeil ! - Copyright ORBIFLY Décembre 2007 - Disclaimer

ORBIFLY MET'MAP TEAM :

Programmation & Développement : Alexandra Zaïnal
Conception & Développement : Baudouin d'Aumeries
Co-Programmation & Développement : Marc-Olivier Méhu
Soutien technique & logistique : Manuel Goepfert

Contact : metmap@orbifly.com




SOURCES & CREDITS :

   NOAA